Time;durP1;ratioP1;P1;durP2;ratioP2;P2;SDS_P1;SDS_P2;PMS_P1;PMS_P2;Temp;Humidity;BMP_temperature;BMP_pressure;BME280_temperature;BME280_humidity;BME280_pressure;Samples;Min_cycle;Max_cycle;Signal;HPM_P1;HPM_P2
2022/05/08 00:00:20;;;;;;;14.90;12.90;;;;;;;11.19;87.52;97210.25;107685;1268;46316;-80
2022/05/08 00:03:08;;;;;;;18.00;13.80;;;;;;;11.26;87.39;97207.31;107705;1268;39504;-80
2022/05/08 00:05:40;;;;;;;17.40;13.50;;;;;;;11.36;86.98;97203.79;107636;1270;34815;-80
2022/05/08 00:08:11;;;;;;;16.20;13.40;;;;;;;11.41;86.83;97204.91;107632;1268;45126;-80
2022/05/08 00:10:42;;;;;;;18.10;14.80;;;;;;;11.39;86.82;97200.82;107724;1268;36107;-80
2022/05/08 00:13:14;;;;;;;19.30;15.60;;;;;;;11.39;86.80;97203.52;107718;1268;36964;-80
2022/05/08 00:15:45;;;;;;;18.80;15.70;;;;;;;11.39;86.80;97202.67;107600;1270;37210;-80
2022/05/08 00:18:16;;;;;;;18.30;16.10;;;;;;;11.40;86.71;97206.39;107688;1268;43500;-80
2022/05/08 00:20:46;;;;;;;22.70;17.50;;;;;;;11.42;86.75;97201.79;107733;1268;34892;-80
2022/05/08 00:23:15;;;;;;;;;;;;;;;11.42;86.74;97199.23;107742;1268;34687;-80
2022/05/08 00:25:46;;;;;;;25.80;20.40;;;;;;;11.42;86.80;97199.39;107710;1268;35614;-80
2022/05/08 00:28:17;;;;;;;23.30;20.10;;;;;;;11.44;86.53;97195.56;107687;1268;42689;-80
2022/05/08 00:30:48;;;;;;;26.00;21.00;;;;;;;11.46;86.65;97196.09;107715;1268;39784;-80
2022/05/08 00:33:18;;;;;;;21.50;18.60;;;;;;;11.48;86.60;97197.55;107708;1268;39615;-80
2022/05/08 00:35:49;;;;;;;27.30;20.80;;;;;;;11.51;86.53;97197.44;107687;1268;40465;-80
2022/05/08 00:38:20;;;;;;;22.80;18.60;;;;;;;11.55;86.36;97199.25;107729;1268;36964;-80
2022/05/08 00:40:51;;;;;;;20.50;17.90;;;;;;;11.61;86.20;97196.31;107721;1268;33046;-80
2022/05/08 00:43:32;;;;;;;19.90;17.40;;;;;;;11.64;86.05;97200.65;107644;1268;47353;-80
2022/05/08 00:46:07;;;;;;;21.30;17.40;;;;;;;11.67;85.85;97199.63;107681;1268;38116;-80
2022/05/08 00:48:39;;;;;;;19.80;17.30;;;;;;;11.69;85.67;97200.12;107645;1270;45704;-80
2022/05/08 00:51:10;;;;;;;22.80;17.80;;;;;;;11.72;85.51;97199.52;107677;1268;39551;-80
2022/05/08 00:53:43;;;;;;;19.60;17.00;;;;;;;11.73;85.39;97199.20;107717;1268;35823;-80
2022/05/08 00:56:16;;;;;;;20.70;17.30;;;;;;;11.74;85.26;97193.14;107736;1268;36262;-80
2022/05/08 00:58:48;;;;;;;20.00;17.80;;;;;;;11.78;85.19;97194.50;107669;1268;42630;-80
2022/05/08 01:01:19;;;;;;;19.90;17.80;;;;;;;11.79;85.08;97189.78;107728;1267;41501;-81
2022/05/08 01:03:50;;;;;;;19.80;17.70;;;;;;;11.80;85.05;97192.65;107721;1269;39197;-81
2022/05/08 01:06:21;;;;;;;22.00;17.20;;;;;;;11.81;85.05;97194.30;107696;1269;29972;-80
2022/05/08 01:08:54;;;;;;;19.70;17.70;;;;;;;11.83;84.92;97195.70;107739;1268;40229;-80
2022/05/08 01:11:25;;;;;;;22.30;17.50;;;;;;;11.83;84.80;97194.79;107663;1268;42162;-81
2022/05/08 01:13:56;;;;;;;19.60;17.50;;;;;;;11.83;84.67;97196.70;107765;1270;29851;-81
2022/05/08 01:16:27;;;;;;;20.40;18.20;;;;;;;11.84;84.74;97192.02;107662;1270;49754;-81
2022/05/08 01:18:56;;;;;;;;;;;;;;;11.83;84.63;97195.70;107760;1268;44518;-80
2022/05/08 01:21:35;;;;;;;17.50;15.60;;;;;;;11.83;84.75;97194.36;107748;1268;46661;-80
2022/05/08 01:24:08;;;;;;;17.10;15.30;;;;;;;11.82;84.67;97194.21;107655;1270;42676;-80
2022/05/08 01:26:39;;;;;;;21.70;15.40;;;;;;;11.83;84.57;97196.39;107769;1268;34648;-81
2022/05/08 01:29:09;;;;;;;18.90;15.20;;;;;;;11.83;84.72;97194.73;107730;1268;33679;-81
2022/05/08 01:31:40;;;;;;;14.50;13.00;;;;;;;11.79;84.85;97196.90;107730;1268;37338;-80
2022/05/08 01:34:11;;;;;;;17.70;13.40;;;;;;;11.74;85.04;97198.08;107711;1268;32083;-80
2022/05/08 01:36:42;;;;;;;15.20;13.40;;;;;;;11.68;85.32;97203.04;107716;1268;30554;-80
2022/05/08 01:39:13;;;;;;;17.80;14.70;;;;;;;11.65;85.51;97201.87;107684;1268;35109;-80
2022/05/08 01:41:44;;;;;;;18.90;14.90;;;;;;;11.64;85.58;97200.23;107661;1268;42464;-81
2022/05/08 01:44:14;;;;;;;16.70;14.10;;;;;;;11.63;85.59;97198.11;107659;1268;37438;-81
2022/05/08 01:46:45;;;;;;;15.40;13.70;;;;;;;11.61;85.64;97200.50;107675;1268;47389;-80
2022/05/08 01:49:16;;;;;;;15.50;13.30;;;;;;;11.61;85.78;97198.96;107639;1270;35692;-81
2022/05/08 01:51:46;;;;;;;17.10;13.80;;;;;;;11.61;85.93;97201.04;107666;1269;35600;-81
2022/05/08 01:54:17;;;;;;;17.00;12.80;;;;;;;11.61;85.92;97201.63;107642;1268;43763;-80
2022/05/08 01:56:48;;;;;;;15.20;13.20;;;;;;;11.62;85.77;97200.98;107656;1270;34972;-81
2022/05/08 01:59:19;;;;;;;14.50;12.40;;;;;;;11.64;85.69;97201.98;107691;1268;31098;-81
2022/05/08 02:01:50;;;;;;;16.40;13.60;;;;;;;11.64;85.80;97204.11;107709;1268;37306;-80
2022/05/08 02:04:21;;;;;;;18.50;15.20;;;;;;;11.62;85.97;97203.95;107730;1268;36788;-80
2022/05/08 02:06:53;;;;;;;20.60;17.60;;;;;;;11.63;86.19;97205.80;107720;1268;31828;-81
2022/05/08 02:09:24;;;;;;;19.20;17.20;;;;;;;11.71;86.08;97205.90;107740;1268;33902;-80
2022/05/08 02:11:54;;;;;;;20.80;18.50;;;;;;;11.75;86.04;97202.70;107679;1268;38468;-80
2022/05/08 02:14:24;;;;;;;;;;;;;;;11.76;85.97;97205.52;107664;1270;43309;-80
2022/05/08 02:16:54;;;;;;;19.90;17.70;;;;;;;11.77;86.16;97204.44;107740;1270;31982;-80
2022/05/08 02:19:25;;;;;;;22.10;18.90;;;;;;;11.77;86.50;97206.34;107678;1268;39109;-80
2022/05/08 02:21:56;;;;;;;21.70;19.40;;;;;;;11.78;86.40;97206.89;107721;1270;33483;-80
2022/05/08 02:24:27;;;;;;;22.90;19.10;;;;;;;11.78;86.35;97204.08;107799;1268;31637;-81
2022/05/08 02:26:58;;;;;;;22.80;19.00;;;;;;;11.79;86.51;97207.33;107737;1270;41382;-80
2022/05/08 02:29:29;;;;;;;19.90;17.80;;;;;;;11.80;86.36;97203.98;107750;1268;41846;-80
2022/05/08 02:32:00;;;;;;;25.60;20.30;;;;;;;11.82;86.30;97203.92;107803;1268;32703;-81
2022/05/08 02:34:31;;;;;;;22.40;18.80;;;;;;;11.83;86.38;97202.45;107767;1268;37264;-80
2022/05/08 02:37:01;;;;;;;22.40;19.90;;;;;;;11.81;86.39;97199.08;107647;1270;44035;-77
2022/05/08 02:39:30;;;;;;;;;;;;;;;11.82;86.56;97201.42;107745;1268;33526;-79
2022/05/08 02:42:01;;;;;;;20.90;18.50;;;;;;;11.80;86.63;97207.48;107731;1268;49043;-80
2022/05/08 02:44:32;;;;;;;21.30;19.10;;;;;;;11.77;86.64;97209.44;107655;1268;36348;-80
2022/05/08 02:47:03;;;;;;;23.00;19.20;;;;;;;11.78;86.55;97208.64;107699;1268;45912;-80
2022/05/08 02:49:34;;;;;;;21.40;19.20;;;;;;;11.79;86.48;97211.25;107707;1268;36409;-80
2022/05/08 02:52:06;;;;;;;20.90;18.70;;;;;;;11.80;86.44;97212.26;107660;1268;45627;-80
2022/05/08 02:54:37;;;;;;;19.90;17.70;;;;;;;11.80;86.57;97206.15;107693;1270;33697;-80
2022/05/08 03:00:02;;;;;;;21.60;18.90;;;;;;;11.78;86.69;97213.80;107703;1267;36923;-80
2022/05/08 03:02:33;;;;;;;20.60;18.40;;;;;;;11.76;86.67;97214.70;107712;1268;36325;-80
2022/05/08 03:05:04;;;;;;;19.20;17.30;;;;;;;11.74;86.69;97216.30;107608;1268;47202;-80
2022/05/08 03:07:35;;;;;;;20.90;17.90;;;;;;;11.72;86.84;97215.04;107739;1268;31168;-80
2022/05/08 03:10:05;;;;;;;;;;;;;;;11.72;87.22;97215.84;107716;1268;29980;-80
2022/05/08 03:12:36;;;;;;;23.80;20.20;;;;;;;11.72;87.71;97217.59;107681;1270;41917;-80
2022/05/08 03:15:10;;;;;;;23.10;20.70;;;;;;;11.72;87.67;97217.80;107679;1268;37511;-80
2022/05/08 03:17:41;;;;;;;22.90;20.50;;;;;;;11.73;87.74;97216.99;107754;1268;37716;-81
2022/05/08 03:20:13;;;;;;;23.00;20.50;;;;;;;11.74;87.79;97217.41;107681;1268;39341;-81
2022/05/08 03:22:44;;;;;;;22.90;20.40;;;;;;;11.74;87.89;97215.08;107688;1268;44622;-80
2022/05/08 03:25:15;;;;;;;25.20;21.50;;;;;;;11.73;88.04;97214.81;107717;1268;34719;-80
2022/05/08 03:27:44;;;;;;;;;;;;;;;11.72;88.03;97216.85;107749;1268;31769;-80
2022/05/08 03:30:15;;;;;;;24.40;21.30;;;;;;;11.71;88.15;97216.10;107701;1268;45370;-81
2022/05/08 03:32:46;;;;;;;23.50;21.00;;;;;;;11.71;88.42;97213.23;107702;1270;42857;-81
2022/05/08 03:35:17;;;;;;;23.10;20.30;;;;;;;11.71;88.54;97215.52;107682;1268;30654;-81
2022/05/08 03:37:48;;;;;;;23.00;20.50;;;;;;;11.71;88.61;97219.52;107656;1268;52414;-80
2022/05/08 03:40:19;;;;;;;23.60;21.10;;;;;;;11.71;88.42;97222.16;107696;1268;39582;-80
2022/05/08 03:42:49;;;;;;;23.40;20.70;;;;;;;11.71;88.62;97223.17;107671;1268;38978;-80
2022/05/08 03:45:20;;;;;;;23.90;21.10;;;;;;;11.72;88.67;97223.80;107619;1270;40525;-80
2022/05/08 03:47:54;;;;;;;23.30;20.90;;;;;;;11.74;88.66;97228.36;107705;1268;37025;-80
2022/05/08 03:50:25;;;;;;;23.40;20.90;;;;;;;11.76;88.59;97227.83;107676;1270;37518;-81
2022/05/08 03:52:55;;;;;;;23.10;20.60;;;;;;;11.76;88.67;97230.52;107726;1268;36427;-80
2022/05/08 03:55:26;;;;;;;23.50;21.20;;;;;;;11.77;89.14;97231.42;107686;1268;30925;-81
2022/05/08 03:57:57;;;;;;;23.50;21.10;;;;;;;11.81;89.04;97233.36;107770;1268;43889;-81
2022/05/08 04:00:28;;;;;;;22.20;19.90;;;;;;;11.83;89.32;97235.07;107702;1268;33279;-81
2022/05/08 04:03:01;;;;;;;23.50;21.10;;;;;;;11.83;89.81;97235.77;107790;1268;36309;-81
2022/05/08 04:05:31;;;;;;;22.40;20.10;;;;;;;11.84;90.02;97240.86;107654;1268;44190;-79
2022/05/08 04:08:03;;;;;;;23.00;19.90;;;;;;;11.85;90.39;97240.96;107593;1268;43901;-80
2022/05/08 04:10:34;;;;;;;22.90;20.40;;;;;;;11.84;90.61;97241.29;107667;1268;44831;-80
2022/05/08 04:13:05;;;;;;;22.30;19.90;;;;;;;11.83;90.72;97242.23;107641;1268;33824;-81
2022/05/08 04:18:24;;;;;;;22.20;19.70;;;;;;;11.86;90.66;97243.98;107659;1268;43675;-80
2022/05/08 04:20:55;;;;;;;23.20;20.70;;;;;;;11.87;90.50;97248.59;107723;1268;49327;-81
2022/05/08 04:26:14;;;;;;;22.60;20.30;;;;;;;11.90;90.78;97247.27;107584;1268;58794;-80
2022/05/08 04:28:45;;;;;;;23.70;20.70;;;;;;;11.92;90.52;97248.89;107521;1270;65428;-81
2022/05/08 04:31:14;;;;;;;;;;;;;;;11.95;90.37;97249.89;107716;1268;42805;-81
2022/05/08 04:33:51;;;;;;;24.60;22.00;;;;;;;11.98;90.38;97250.70;107666;1268;43638;-80
2022/05/08 04:36:22;;;;;;;23.30;20.80;;;;;;;12.03;90.40;97252.53;107721;1268;33116;-81
2022/05/08 04:38:53;;;;;;;24.90;22.30;;;;;;;12.07;90.40;97252.45;107676;1268;96562;-81
2022/05/08 04:41:24;;;;;;;24.10;21.60;;;;;;;12.07;90.32;97255.59;107721;1268;44270;-81
2022/05/08 04:43:59;;;;;;;24.30;21.50;;;;;;;12.11;90.43;97258.41;107721;1267;40853;-80
2022/05/08 04:46:31;;;;;;;25.10;21.20;;;;;;;12.16;90.50;97260.20;107825;1268;34329;-81
2022/05/08 04:49:02;;;;;;;23.00;20.70;;;;;;;12.21;90.37;97261.80;107693;1268;35521;-77
2022/05/08 04:51:33;;;;;;;23.30;20.90;;;;;;;12.25;90.33;97261.70;107689;1268;38504;-80
2022/05/08 04:54:04;;;;;;;22.80;20.40;;;;;;;12.27;90.43;97264.25;107645;1268;62510;-80
2022/05/08 04:56:34;;;;;;;22.60;20.20;;;;;;;12.33;90.47;97270.17;107626;1270;71142;-80
2022/05/08 04:59:06;;;;;;;22.70;20.30;;;;;;;12.37;90.58;97269.92;107652;1268;44520;-80
2022/05/08 05:01:36;;;;;;;21.90;19.70;;;;;;;12.38;90.52;97271.63;107675;1268;55779;-81
2022/05/08 05:04:08;;;;;;;23.10;20.90;;;;;;;12.42;90.60;97278.11;107659;1268;45590;-80
2022/05/08 05:06:41;;;;;;;21.20;19.00;;;;;;;12.46;90.70;97276.65;107780;1268;41536;-80
2022/05/08 05:09:11;;;;;;;22.10;19.60;;;;;;;12.53;90.55;97273.90;107698;1268;43962;-81
2022/05/08 05:11:42;;;;;;;23.10;20.80;;;;;;;12.58;90.74;97279.30;107618;1270;46768;-80
2022/05/08 05:14:13;;;;;;;23.20;20.80;;;;;;;12.66;90.72;97276.86;107706;1268;45045;-80
2022/05/08 05:16:44;;;;;;;22.80;20.50;;;;;;;12.76;90.52;97282.70;107696;1270;36426;-81
2022/05/08 05:19:15;;;;;;;21.60;19.50;;;;;;;12.90;90.43;97284.11;107682;1268;39047;-81
2022/05/08 05:21:46;;;;;;;21.50;19.30;;;;;;;13.02;90.14;97283.23;107702;1268;40611;-81
2022/05/08 05:24:17;;;;;;;20.90;18.60;;;;;;;13.13;89.78;97283.90;107705;1268;31632;-80
2022/05/08 05:26:48;;;;;;;22.00;19.70;;;;;;;13.19;89.33;97287.06;107659;1268;66969;-81
2022/05/08 05:29:19;;;;;;;22.70;20.40;;;;;;;13.30;89.20;97288.34;107603;1269;69918;-81
2022/05/08 05:31:50;;;;;;;20.50;18.50;;;;;;;13.38;89.00;97286.98;107733;1268;36725;-80
2022/05/08 05:34:21;;;;;;;21.40;19.10;;;;;;;13.50;89.02;97285.12;107640;1268;40605;-80
2022/05/08 05:36:52;;;;;;;21.30;19.10;;;;;;;13.62;88.38;97290.23;107721;1268;34243;-81
2022/05/08 05:39:24;;;;;;;21.30;18.60;;;;;;;13.75;88.34;97288.20;107623;1268;45519;-81
2022/05/08 05:41:55;;;;;;;20.30;17.00;;;;;;;14.00;87.97;97289.97;107823;1268;33399;-81
2022/05/08 05:44:26;;;;;;;20.10;18.00;;;;;;;14.37;87.56;97292.13;107677;1268;36319;-81
2022/05/08 05:49:47;;;;;;;19.30;17.30;;;;;;;14.69;85.32;97293.66;107703;1268;37617;-81
2022/05/08 05:52:18;;;;;;;19.20;17.20;;;;;;;14.67;85.19;97294.59;107705;1268;37235;-80
2022/05/08 05:54:49;;;;;;;20.40;17.60;;;;;;;14.59;84.61;97291.05;107685;1270;37347;-80
2022/05/08 05:57:20;;;;;;;19.20;17.30;;;;;;;14.55;84.60;97294.64;107649;1270;43191;-81
2022/05/08 05:59:51;;;;;;;18.30;16.30;;;;;;;14.62;84.82;97297.37;107644;1268;53493;-81
2022/05/08 06:02:22;;;;;;;18.70;16.80;;;;;;;14.63;84.46;97295.38;107711;1270;37868;-80
2022/05/08 06:04:53;;;;;;;18.30;16.50;;;;;;;14.60;84.27;97297.40;107644;1270;40022;-80
2022/05/08 06:07:24;;;;;;;18.60;16.60;;;;;;;14.58;84.39;97295.49;107578;1270;42203;-81
2022/05/08 06:09:55;;;;;;;18.70;16.70;;;;;;;14.56;84.16;97302.25;107546;1270;36773;-80
2022/05/08 06:12:26;;;;;;;18.40;16.50;;;;;;;14.47;83.83;97301.23;107615;1270;32935;-80
2022/05/08 06:14:57;;;;;;;18.30;16.50;;;;;;;14.41;83.74;97305.73;107717;1268;33873;-81
2022/05/08 06:17:28;;;;;;;18.70;16.80;;;;;;;14.28;83.66;97304.27;107693;1270;45654;-80
2022/05/08 06:19:59;;;;;;;19.20;17.20;;;;;;;14.22;83.99;97305.20;107728;1270;32820;-80
2022/05/08 06:22:30;;;;;;;19.40;17.50;;;;;;;14.14;84.24;97308.86;107723;1269;42013;-81
2022/05/08 06:25:01;;;;;;;18.80;16.70;;;;;;;14.05;84.57;97308.36;107751;1268;37934;-81
2022/05/08 06:27:33;;;;;;;20.50;18.30;;;;;;;13.97;84.68;97306.21;107664;1268;60788;-80
2022/05/08 06:30:05;;;;;;;20.40;18.40;;;;;;;13.89;84.98;97309.21;107731;1270;30924;-80
2022/05/08 06:32:37;;;;;;;20.70;18.60;;;;;;;13.79;84.93;97311.52;107615;1270;43339;-80
2022/05/08 06:35:08;;;;;;;20.50;18.30;;;;;;;13.74;85.19;97312.73;107598;1270;39407;-80
2022/05/08 06:37:39;;;;;;;21.60;18.50;;;;;;;13.70;85.22;97312.02;107687;1270;42321;-80
2022/05/08 06:40:12;;;;;;;22.10;19.80;;;;;;;13.64;85.34;97313.08;107681;1270;38744;-80
2022/05/08 06:42:43;;;;;;;21.60;18.80;;;;;;;13.60;85.35;97316.09;107670;1270;46251;-80
2022/05/08 06:45:14;;;;;;;21.20;19.10;;;;;;;13.55;85.51;97314.23;107700;1268;37955;-81
2022/05/08 06:47:45;;;;;;;21.70;19.50;;;;;;;13.52;85.75;97314.37;107678;1271;40061;-81
2022/05/08 06:50:17;;;;;;;20.30;18.20;;;;;;;13.49;86.10;97315.92;107669;1270;55718;-80
2022/05/08 06:52:48;;;;;;;22.40;20.00;;;;;;;13.40;86.13;97315.26;107729;1269;37763;-80
2022/05/08 06:55:20;;;;;;;21.50;19.30;;;;;;;13.30;86.30;97317.58;107703;1268;36229;-81
2022/05/08 06:57:51;;;;;;;20.60;17.40;;;;;;;13.29;86.78;97315.23;107652;1268;50616;-81
2022/05/08 07:03:11;;;;;;;20.70;18.60;;;;;;;13.28;87.40;97315.73;107683;1268;39912;-80
2022/05/08 07:05:47;;;;;;;22.10;19.80;;;;;;;13.29;87.51;97320.24;107657;1270;35377;-81
2022/05/08 07:08:18;;;;;;;23.20;20.80;;;;;;;13.33;87.48;97317.96;107680;1270;49798;-80
2022/05/08 07:10:50;;;;;;;22.20;19.90;;;;;;;13.34;87.76;97315.92;107680;1268;40808;-80
2022/05/08 07:13:25;;;;;;;22.60;20.30;;;;;;;13.34;87.90;97319.07;107647;1270;39802;-81
2022/05/08 07:15:57;;;;;;;22.40;19.90;;;;;;;13.35;88.03;97316.61;107646;1270;36887;-81
2022/05/08 07:18:29;;;;;;;23.20;20.70;;;;;;;13.40;88.08;97318.77;107751;1270;45505;-81
2022/05/08 07:21:00;;;;;;;23.30;20.80;;;;;;;13.44;88.05;97319.23;107743;1268;35154;-81
2022/05/08 07:23:31;;;;;;;22.90;20.40;;;;;;;13.54;88.29;97321.91;107706;1270;36281;-80
2022/05/08 07:26:03;;;;;;;23.10;20.50;;;;;;;13.62;88.00;97322.78;107669;1269;40733;-79
2022/05/08 07:28:33;;;;;;;23.00;20.30;;;;;;;13.74;87.92;97325.25;107752;1268;35130;-80
2022/05/08 07:31:05;;;;;;;23.40;21.00;;;;;;;13.86;88.14;97325.83;107681;1269;35783;-80
2022/05/08 07:33:38;;;;;;;24.70;20.70;;;;;;;13.99;87.95;97324.92;107672;1268;37599;-80
2022/05/08 07:36:16;;;;;;;23.50;20.70;;;;;;;14.09;87.62;97325.72;107705;1270;32240;-80
2022/05/08 07:38:48;;;;;;;21.20;18.90;;;;;;;14.20;87.79;97326.87;107710;1270;39246;-80
2022/05/08 07:41:20;;;;;;;22.10;18.80;;;;;;;14.54;87.67;97327.51;107572;1268;65314;-81
2022/05/08 07:43:51;;;;;;;20.50;18.30;;;;;;;14.97;86.85;97325.14;107684;1268;36368;-81
2022/05/08 07:46:23;;;;;;;18.00;15.80;;;;;;;15.22;84.57;97330.08;107678;1270;31698;-81
2022/05/08 07:48:54;;;;;;;17.40;15.70;;;;;;;15.12;83.36;97326.17;107647;1270;50064;-81
2022/05/08 07:51:25;;;;;;;17.70;15.60;;;;;;;15.09;82.87;97328.08;107681;1268;34133;-81
2022/05/08 07:53:57;;;;;;;17.00;15.30;;;;;;;15.05;82.62;97329.23;107701;1268;36415;-82
2022/05/08 07:56:29;;;;;;;17.10;15.30;;;;;;;15.14;82.52;97329.75;107811;1270;37140;-81
2022/05/08 07:59:00;;;;;;;17.30;15.40;;;;;;;15.20;82.05;97330.48;107822;1270;45053;-81
2022/05/08 08:01:31;;;;;;;18.60;14.60;;;;;;;15.21;81.83;97326.94;107789;1268;35456;-81
2022/05/08 08:04:04;;;;;;;15.00;13.60;;;;;;;15.29;81.54;97332.80;107728;1270;53459;-81
2022/05/08 08:06:35;;;;;;;15.40;13.80;;;;;;;15.38;81.62;97333.40;107643;1269;36195;-80
2022/05/08 08:09:07;;;;;;;14.20;12.50;;;;;;;15.44;80.66;97340.52;107670;1270;39867;-81
2022/05/08 08:11:41;;;;;;;15.80;13.20;;;;;;;15.38;80.09;97338.15;107633;1270;49692;-81
2022/05/08 08:14:12;;;;;;;15.00;13.40;;;;;;;15.24;79.77;97336.13;107687;1270;49304;-81
2022/05/08 08:16:44;;;;;;;14.80;13.20;;;;;;;15.14;80.04;97335.95;107655;1268;42463;-81
2022/05/08 08:19:15;;;;;;;16.40;13.40;;;;;;;15.09;80.30;97335.82;107594;1270;38411;-81
2022/05/08 08:21:46;;;;;;;15.40;13.00;;;;;;;15.06;80.70;97334.95;107760;1268;36669;-80
2022/05/08 08:24:17;;;;;;;17.40;15.20;;;;;;;15.02;80.41;97336.29;107643;1268;52059;-81
2022/05/08 08:26:48;;;;;;;16.20;14.50;;;;;;;15.11;81.20;97340.81;107690;1269;34772;-81
2022/05/08 08:29:19;;;;;;;15.00;12.90;;;;;;;15.24;80.66;97340.79;107616;1270;40100;-81
2022/05/08 08:31:50;;;;;;;15.60;13.90;;;;;;;15.35;80.87;97338.20;107696;1269;34847;-81
2022/05/08 08:34:22;;;;;;;14.50;13.00;;;;;;;15.83;81.67;97340.92;107683;1268;31255;-81
2022/05/08 08:36:53;;;;;;;13.30;11.90;;;;;;;16.72;80.36;97341.98;107651;1270;40683;-81
2022/05/08 08:39:24;;;;;;;12.90;11.60;;;;;;;17.56;78.38;97342.98;107670;1269;39392;-81
2022/05/08 08:42:17;;;;;;;11.80;10.20;;;;;;;18.04;74.57;97341.58;107694;1268;44813;-81
2022/05/08 08:47:52;;;;;;;10.80;9.70;;;;;;;17.49;73.84;97340.73;107700;1268;41140;-80
2022/05/08 08:50:26;;;;;;;12.70;10.20;;;;;;;17.27;73.59;97344.63;107617;1270;39180;-81
2022/05/08 08:53:00;;;;;;;11.50;10.20;;;;;;;17.04;73.72;97348.69;107727;1268;33720;-81
2022/05/08 08:55:32;;;;;;;12.20;10.00;;;;;;;16.90;74.52;97348.27;107774;1268;40087;-81
2022/05/08 08:58:04;;;;;;;13.70;9.20;;;;;;;16.96;74.85;97347.82;107691;1270;33495;-80
2022/05/08 09:00:35;;;;;;;10.70;9.50;;;;;;;16.93;74.19;97350.26;107640;1270;37599;-80
2022/05/08 09:03:08;;;;;;;11.40;9.90;;;;;;;16.83;73.61;97352.08;107708;1270;36479;-80
2022/05/08 09:05:40;;;;;;;11.20;9.90;;;;;;;16.68;74.07;97351.18;107607;1269;53185;-80
2022/05/08 09:08:25;;;;;;;11.20;9.60;;;;;;;16.47;74.01;97352.87;107635;1270;42881;-80
2022/05/08 09:10:58;;;;;;;12.10;9.70;;;;;;;16.37;74.60;97352.05;107699;1270;32024;-81
2022/05/08 09:13:31;;;;;;;11.70;9.60;;;;;;;16.30;74.15;97357.38;107877;1268;31473;-81
2022/05/08 09:16:08;;;;;;;11.90;9.70;;;;;;;16.24;74.50;97355.98;107788;1268;43026;-81
2022/05/08 09:18:48;;;;;;;11.00;9.90;;;;;;;16.15;74.50;97354.32;107728;1268;40161;-80
2022/05/08 09:24:17;;;;;;;11.90;9.90;;;;;;;16.10;75.19;97352.98;107590;1270;51119;-81
2022/05/08 09:26:50;;;;;;;11.30;10.20;;;;;;;16.02;75.03;97354.14;107699;1268;37136;-81
2022/05/08 09:29:25;;;;;;;11.10;10.00;;;;;;;16.00;75.30;97355.86;107705;1269;35849;-81
2022/05/08 09:31:57;;;;;;;11.40;10.00;;;;;;;15.98;75.59;97356.72;107726;1270;66851;-81
2022/05/08 09:34:29;;;;;;;11.00;9.90;;;;;;;15.99;75.55;97355.89;107623;1270;37369;-81
2022/05/08 09:37:10;;;;;;;11.90;10.20;;;;;;;15.99;75.57;97356.42;107761;1270;33961;-81
2022/05/08 09:39:41;;;;;;;12.50;10.70;;;;;;;16.03;75.73;97358.27;107670;1270;41983;-81
2022/05/08 09:42:39;;;;;;;12.10;10.10;;;;;;;16.05;75.84;97355.69;107632;1268;45880;-81
2022/05/08 09:45:11;;;;;;;11.00;9.90;;;;;;;16.11;75.84;97354.19;107752;1270;43382;-81
2022/05/08 09:47:47;;;;;;;11.40;10.30;;;;;;;16.13;75.47;97355.65;107733;1268;31786;-81
2022/05/08 09:50:19;;;;;;;11.50;10.30;;;;;;;16.07;75.52;97352.19;107579;1270;62432;-81
2022/05/08 09:52:50;;;;;;;13.40;10.60;;;;;;;16.04;75.28;97353.52;107707;1268;35324;-81
2022/05/08 09:55:21;;;;;;;11.00;9.90;;;;;;;15.95;75.27;97353.73;107706;1268;45729;-81
2022/05/08 09:57:53;;;;;;;15.40;10.90;;;;;;;15.92;75.53;97354.06;107726;1268;38406;-81
2022/05/08 10:00:24;;;;;;;11.60;10.40;;;;;;;15.93;75.60;97353.30;107668;1270;56675;-81
2022/05/08 10:02:56;;;;;;;10.20;9.00;;;;;;;15.90;75.56;97352.90;107724;1268;33031;-80
2022/05/08 10:05:28;;;;;;;11.90;10.50;;;;;;;15.83;75.51;97344.95;107777;1268;36182;-81
2022/05/08 10:08:01;;;;;;;11.00;9.80;;;;;;;15.79;75.85;97344.23;107764;1268;51373;-80
2022/05/08 10:14:07;;;;;;;10.70;9.50;;;;;;;15.62;75.13;97340.48;107638;1270;93905;-80
2022/05/08 10:17:02;;;;;;;9.40;8.40;;;;;;;15.50;75.02;97342.32;107652;1270;34887;-80
2022/05/08 10:20:00;;;;;;;11.20;9.50;;;;;;;15.42;75.00;97343.18;107676;1270;33425;-80
2022/05/08 10:22:49;;;;;;;9.20;8.10;;;;;;;15.40;75.21;97344.06;107726;1270;39716;-81
2022/05/08 10:25:20;;;;;;;8.20;7.40;;;;;;;15.36;74.97;97342.16;107670;1268;53215;-80
2022/05/08 10:28:08;;;;;;;9.50;7.80;;;;;;;15.33;74.72;97342.66;107572;1270;48785;-80
2022/05/08 10:30:40;;;;;;;8.80;7.90;;;;;;;15.33;74.72;97341.23;107657;1269;53429;-80
2022/05/08 10:33:11;;;;;;;9.10;7.30;;;;;;;15.33;74.77;97339.67;107707;1268;38471;-80
2022/05/08 10:36:13;;;;;;;8.60;7.70;;;;;;;15.36;74.95;97340.65;107666;1270;37435;-80
2022/05/08 10:38:44;;;;;;;9.50;8.50;;;;;;;15.40;75.05;97340.60;107710;1268;34770;-81
2022/05/08 10:41:44;;;;;;;10.00;9.00;;;;;;;15.41;75.13;97344.73;107702;1271;37846;-81
2022/05/08 10:44:37;;;;;;;10.80;9.70;;;;;;;15.40;74.98;97341.77;107609;1270;36315;-80
2022/05/08 10:47:42;;;;;;;9.90;8.90;;;;;;;15.41;75.63;97334.70;107682;1270;39219;-81
2022/05/08 10:50:16;;;;;;;10.50;9.30;;;;;;;15.44;75.60;97334.59;107586;1269;70795;-81
2022/05/08 10:52:49;;;;;;;11.80;9.70;;;;;;;15.49;75.82;97334.10;107717;1268;48766;-81
2022/05/08 10:55:21;;;;;;;11.10;9.90;;;;;;;15.51;75.69;97334.52;107675;1270;34244;-80
2022/05/08 10:57:53;;;;;;;10.80;9.70;;;;;;;15.53;75.81;97332.27;107696;1268;42482;-80
2022/05/08 11:00:25;;;;;;;11.20;9.30;;;;;;;15.53;75.69;97327.63;107672;1269;45505;-80
2022/05/08 11:02:58;;;;;;;9.30;8.30;;;;;;;15.57;75.70;97331.39;107601;1270;46255;-81
2022/05/08 11:05:32;;;;;;;10.00;9.00;;;;;;;15.61;75.57;97324.58;107786;1270;32669;-80
2022/05/08 11:08:05;;;;;;;10.10;8.90;;;;;;;15.65;75.88;97322.00;107705;1268;35126;-77
2022/05/08 11:10:38;;;;;;;11.30;8.70;;;;;;;15.73;75.66;97322.33;107649;1270;42779;-80
2022/05/08 11:13:11;;;;;;;12.20;9.40;;;;;;;15.75;75.03;97323.52;107666;1270;55182;-80
2022/05/08 11:15:49;;;;;;;11.20;9.90;;;;;;;15.77;75.29;97323.39;107458;1270;232129;-80
2022/05/08 11:18:22;;;;;;;11.80;10.10;;;;;;;15.78;75.39;97320.61;107666;1270;49865;-81
2022/05/08 11:20:57;;;;;;;12.20;10.70;;;;;;;15.82;75.66;97320.86;107609;1270;45174;-81
2022/05/08 11:23:30;;;;;;;11.60;10.50;;;;;;;15.86;75.89;97316.18;107673;1268;38506;-81
2022/05/08 11:26:02;;;;;;;11.10;9.50;;;;;;;15.90;75.92;97317.97;107665;1270;40361;-80
2022/05/08 11:28:35;;;;;;;11.30;9.70;;;;;;;15.85;75.52;97316.40;107606;1270;45285;-79
2022/05/08 11:31:17;;;;;;;12.40;10.10;;;;;;;15.81;75.43;97314.94;107623;1270;40651;-80
2022/05/08 11:36:38;;;;;;;10.50;9.50;;;;;;;15.74;75.58;97314.29;107693;1271;46105;-80
2022/05/08 11:39:13;;;;;;;10.20;9.20;;;;;;;15.74;75.58;97313.70;107707;1268;42963;-80
2022/05/08 11:41:46;;;;;;;10.90;9.30;;;;;;;15.82;75.37;97309.35;107715;1270;30837;-80
2022/05/08 11:44:24;;;;;;;10.20;9.10;;;;;;;15.87;75.31;97310.44;107691;1268;32483;-81
2022/05/08 11:46:57;;;;;;;10.20;8.90;;;;;;;15.91;75.34;97310.16;107621;1271;44698;-80
2022/05/08 11:49:30;;;;;;;10.40;8.70;;;;;;;15.91;75.07;97309.83;107769;1268;36567;-81
2022/05/08 11:52:02;;;;;;;9.60;8.70;;;;;;;15.86;74.71;97312.92;107743;1270;34733;-81
2022/05/08 11:54:35;;;;;;;10.30;9.00;;;;;;;15.84;74.95;97314.77;107677;1271;45892;-80
2022/05/08 11:57:19;;;;;;;10.10;9.00;;;;;;;15.83;75.20;97310.94;107698;1271;31395;-81
2022/05/08 11:59:52;;;;;;;10.30;8.70;;;;;;;15.80;75.34;97312.35;107742;1271;33577;-80
2022/05/08 12:02:39;;;;;;;11.30;10.00;;;;;;;15.77;75.44;97311.42;107624;1268;39352;-81